sensor_id;sensor_type;location;lat;lon;timestamp;pressure;altitude;pressure_sealevel;temperature;humidity
34742;BME280;20968;42.696;23.360;2023-05-08T00:00:29;95375.44;;;17.42;53.15
34742;BME280;20968;42.696;23.360;2023-05-08T00:02:55;95389.13;;;17.40;53.54
34742;BME280;20968;42.696;23.360;2023-05-08T00:05:34;95387.97;;;17.19;53.33
34742;BME280;20968;42.696;23.360;2023-05-08T00:08:01;95387.78;;;17.12;53.13
34742;BME280;20968;42.696;23.360;2023-05-08T00:10:29;95399.38;;;17.21;53.74
34742;BME280;20968;42.696;23.360;2023-05-08T00:12:55;95391.38;;;17.01;53.62
34742;BME280;20968;42.696;23.360;2023-05-08T00:15:26;95393.97;;;16.94;54.01
34742;BME280;20968;42.696;23.360;2023-05-08T00:17:52;95401.28;;;16.97;54.50
34742;BME280;20968;42.696;23.360;2023-05-08T00:20:20;95398.94;;;17.06;53.72
34742;BME280;20968;42.696;23.360;2023-05-08T00:22:46;95396.91;;;17.07;54.04
34742;BME280;20968;42.696;23.360;2023-05-08T00:25:11;95403.72;;;17.11;53.72
34742;BME280;20968;42.696;23.360;2023-05-08T00:27:46;95393.38;;;17.06;53.98
34742;BME280;20968;42.696;23.360;2023-05-08T00:30:22;95410.53;;;17.15;53.81
34742;BME280;20968;42.696;23.360;2023-05-08T00:32:54;95405.56;;;16.98;54.03
34742;BME280;20968;42.696;23.360;2023-05-08T00:35:21;95412.91;;;16.95;54.05
34742;BME280;20968;42.696;23.360;2023-05-08T00:37:57;95396.75;;;16.88;54.01
34742;BME280;20968;42.696;23.360;2023-05-08T00:40:29;95411.88;;;17.04;54.58
34742;BME280;20968;42.696;23.360;2023-05-08T00:42:59;95396.28;;;16.84;54.11
34742;BME280;20968;42.696;23.360;2023-05-08T00:45:35;95397.84;;;16.74;54.36
34742;BME280;20968;42.696;23.360;2023-05-08T00:48:08;95399.84;;;16.79;54.50
34742;BME280;20968;42.696;23.360;2023-05-08T00:50:40;95417.03;;;16.83;54.66
34742;BME280;20968;42.696;23.360;2023-05-08T00:53:06;95409.69;;;16.80;54.49
34742;BME280;20968;42.696;23.360;2023-05-08T00:55:32;95416.50;;;16.90;54.58
34742;BME280;20968;42.696;23.360;2023-05-08T00:57:58;95406.44;;;16.82;55.36
34742;BME280;20968;42.696;23.360;2023-05-08T01:00:25;95418.53;;;16.84;54.26
34742;BME280;20968;42.696;23.360;2023-05-08T01:02:51;95412.78;;;16.71;54.28
34742;BME280;20968;42.696;23.360;2023-05-08T01:05:17;95415.00;;;16.78;55.58
34742;BME280;20968;42.696;23.360;2023-05-08T01:07:44;95411.19;;;16.87;54.72
34742;BME280;20968;42.696;23.360;2023-05-08T01:10:15;95417.78;;;16.84;54.92
34742;BME280;20968;42.696;23.360;2023-05-08T01:18:37;95422.06;;;16.85;54.99
34742;BME280;20968;42.696;23.360;2023-05-08T01:35:02;95412.72;;;16.82;54.66
34742;BME280;20968;42.696;23.360;2023-05-08T01:37:10;95414.00;;;16.81;54.74
34742;BME280;20968;42.696;23.360;2023-05-08T01:40:01;95411.22;;;16.81;54.76
34742;BME280;20968;42.696;23.360;2023-05-08T01:45:24;95406.22;;;16.69;55.07
34742;BME280;20968;42.696;23.360;2023-05-08T01:55:04;95407.25;;;16.66;55.60
34742;BME280;20968;42.696;23.360;2023-05-08T01:57:52;95395.44;;;16.43;56.25
34742;BME280;20968;42.696;23.360;2023-05-08T02:00:21;95401.78;;;16.38;56.00
34742;BME280;20968;42.696;23.360;2023-05-08T02:03:15;95398.75;;;16.42;56.71
34742;BME280;20968;42.696;23.360;2023-05-08T02:05:44;95406.56;;;16.38;56.45
34742;BME280;20968;42.696;23.360;2023-05-08T02:08:53;95401.28;;;16.35;56.16
34742;BME280;20968;42.696;23.360;2023-05-08T02:11:41;95418.44;;;16.44;56.53
34742;BME280;20968;42.696;23.360;2023-05-08T02:14:11;95414.16;;;16.38;56.09
34742;BME280;20968;42.696;23.360;2023-05-08T02:17:15;95406.63;;;16.11;56.64
34742;BME280;20968;42.696;23.360;2023-05-08T02:19:57;95407.13;;;16.09;57.16
34742;BME280;20968;42.696;23.360;2023-05-08T02:22:48;95423.03;;;16.20;57.16
34742;BME280;20968;42.696;23.360;2023-05-08T02:29:19;95409.69;;;15.91;57.10
34742;BME280;20968;42.696;23.360;2023-05-08T02:35:18;95412.47;;;15.85;57.43
34742;BME280;20968;42.696;23.360;2023-05-08T02:38:25;95418.28;;;15.87;57.45
34742;BME280;20968;42.696;23.360;2023-05-08T02:41:17;95421.06;;;15.98;57.82
34742;BME280;20968;42.696;23.360;2023-05-08T02:47:59;95412.94;;;16.06;57.68
34742;BME280;20968;42.696;23.360;2023-05-08T02:57:49;95429.63;;;16.11;58.19
34742;BME280;20968;42.696;23.360;2023-05-08T03:00:31;95425.06;;;16.14;57.73
34742;BME280;20968;42.696;23.360;2023-05-08T03:06:23;95426.56;;;16.15;57.79
34742;BME280;20968;42.696;23.360;2023-05-08T03:09:27;95428.56;;;16.20;57.82
34742;BME280;20968;42.696;23.360;2023-05-08T03:12:03;95429.34;;;16.20;57.92
34742;BME280;20968;42.696;23.360;2023-05-08T03:18:31;95436.19;;;16.14;58.57
34742;BME280;20968;42.696;23.360;2023-05-08T03:21:19;95436.44;;;16.10;58.39
34742;BME280;20968;42.696;23.360;2023-05-08T03:24:02;95432.16;;;15.98;58.11
34742;BME280;20968;42.696;23.360;2023-05-08T03:27:16;95424.06;;;16.00;58.08
34742;BME280;20968;42.696;23.360;2023-05-08T03:29:45;95430.38;;;16.06;58.35
34742;BME280;20968;42.696;23.360;2023-05-08T03:32:18;95442.47;;;16.14;58.14
34742;BME280;20968;42.696;23.360;2023-05-08T03:34:50;95438.69;;;16.12;58.38
34742;BME280;20968;42.696;23.360;2023-05-08T03:37:21;95447.53;;;16.16;58.46
34742;BME280;20968;42.696;23.360;2023-05-08T03:40:13;95439.69;;;16.20;58.37
34742;BME280;20968;42.696;23.360;2023-05-08T03:42:39;95439.69;;;16.20;58.95
34742;BME280;20968;42.696;23.360;2023-05-08T03:45:12;95440.97;;;16.19;58.50
34742;BME280;20968;42.696;23.360;2023-05-08T03:47:42;95444.00;;;16.26;58.06
34742;BME280;20968;42.696;23.360;2023-05-08T03:50:09;95445.28;;;16.31;57.99
34742;BME280;20968;42.696;23.360;2023-05-08T03:52:46;95441.72;;;16.30;58.51
34742;BME280;20968;42.696;23.360;2023-05-08T03:55:12;95429.34;;;16.31;58.28
34742;BME280;20968;42.696;23.360;2023-05-08T03:58:02;95452.34;;;16.32;58.03
34742;BME280;20968;42.696;23.360;2023-05-08T04:01:05;95453.09;;;16.43;58.18
34742;BME280;20968;42.696;23.360;2023-05-08T04:06:59;95449.28;;;16.40;58.16
34742;BME280;20968;42.696;23.360;2023-05-08T04:09:42;95456.34;;;16.41;58.09
34742;BME280;20968;42.696;23.360;2023-05-08T04:12:35;95459.91;;;16.37;58.01
34742;BME280;20968;42.696;23.360;2023-05-08T04:15:07;95448.28;;;16.38;58.06
34742;BME280;20968;42.696;23.360;2023-05-08T04:18:14;95451.03;;;16.49;58.37
34742;BME280;20968;42.696;23.360;2023-05-08T04:20:32;95466.97;;;16.43;58.14
34742;BME280;20968;42.696;23.360;2023-05-08T04:22:58;95470.03;;;16.39;58.24
34742;BME280;20968;42.696;23.360;2023-05-08T04:25:25;95470.25;;;16.47;58.40
34742;BME280;20968;42.696;23.360;2023-05-08T04:27:54;95470.50;;;16.43;58.35
34742;BME280;20968;42.696;23.360;2023-05-08T04:30:23;95464.19;;;16.43;58.02
34742;BME280;20968;42.696;23.360;2023-05-08T04:32:49;95466.72;;;16.46;58.27
34742;BME280;20968;42.696;23.360;2023-05-08T04:35:14;95467.97;;;16.51;58.27
34742;BME280;20968;42.696;23.360;2023-05-08T04:37:46;95468.47;;;16.55;58.43
34742;BME280;20968;42.696;23.360;2023-05-08T04:40:11;95456.56;;;16.60;58.35
34742;BME280;20968;42.696;23.360;2023-05-08T04:42:38;95461.88;;;16.58;58.42
34742;BME280;20968;42.696;23.360;2023-05-08T04:45:08;95452.50;;;16.61;58.34
34742;BME280;20968;42.696;23.360;2023-05-08T04:47:34;95460.81;;;16.72;58.27
34742;BME280;20968;42.696;23.360;2023-05-08T04:50:00;95450.69;;;16.74;58.81
34742;BME280;20968;42.696;23.360;2023-05-08T04:52:26;95442.63;;;16.65;58.17
34742;BME280;20968;42.696;23.360;2023-05-08T04:54:52;95447.22;;;16.57;57.66
34742;BME280;20968;42.696;23.360;2023-05-08T04:57:17;95458.31;;;16.68;57.31
34742;BME280;20968;42.696;23.360;2023-05-08T04:59:42;95459.31;;;16.71;56.33
34742;BME280;20968;42.696;23.360;2023-05-08T05:02:08;95456.78;;;16.67;56.71
34742;BME280;20968;42.696;23.360;2023-05-08T05:04:35;95458.03;;;16.72;56.70
34742;BME280;20968;42.696;23.360;2023-05-08T05:07:02;95451.88;;;16.90;56.70
34742;BME280;20968;42.696;23.360;2023-05-08T05:09:30;95444.28;;;16.96;57.16
34742;BME280;20968;42.696;23.360;2023-05-08T05:11:55;95444.59;;;16.87;57.90
34742;BME280;20968;42.696;23.360;2023-05-08T05:14:24;95426.19;;;16.67;57.79
34742;BME280;20968;42.696;23.360;2023-05-08T05:16:49;95432.78;;;16.64;57.46
34742;BME280;20968;42.696;23.360;2023-05-08T05:19:16;95441.66;;;16.57;57.87
34742;BME280;20968;42.696;23.360;2023-05-08T05:21:43;95445.91;;;16.69;61.61
34742;BME280;20968;42.696;23.360;2023-05-08T05:24:08;95444.34;;;16.79;58.20
34742;BME280;20968;42.696;23.360;2023-05-08T05:26:33;95442.31;;;16.85;57.96
34742;BME280;20968;42.696;23.360;2023-05-08T05:29:00;95429.72;;;16.73;58.16
34742;BME280;20968;42.696;23.360;2023-05-08T05:31:27;95436.22;;;16.87;58.08
34742;BME280;20968;42.696;23.360;2023-05-08T05:33:54;95438.34;;;17.15;57.43
34742;BME280;20968;42.696;23.360;2023-05-08T05:36:21;95448.41;;;17.35;56.11
34742;BME280;20968;42.696;23.360;2023-05-08T05:38:47;95442.69;;;17.11;56.85
34742;BME280;20968;42.696;23.360;2023-05-08T05:41:13;95440.88;;;17.19;56.69
34742;BME280;20968;42.696;23.360;2023-05-08T05:43:39;95435.53;;;17.26;56.73
34742;BME280;20968;42.696;23.360;2023-05-08T05:46:05;95435.91;;;17.47;55.44
34742;BME280;20968;42.696;23.360;2023-05-08T05:48:31;95434.09;;;17.55;56.24
34742;BME280;20968;42.696;23.360;2023-05-08T05:50:56;95435.84;;;17.58;55.89
34742;BME280;20968;42.696;23.360;2023-05-08T05:53:22;95433.69;;;17.75;55.53
34742;BME280;20968;42.696;23.360;2023-05-08T05:55:47;95431.47;;;17.68;55.72
34742;BME280;20968;42.696;23.360;2023-05-08T05:58:14;95437.72;;;17.79;55.59
34742;BME280;20968;42.696;23.360;2023-05-08T06:00:43;95436.72;;;17.77;54.99
34742;BME280;20968;42.696;23.360;2023-05-08T06:03:08;95427.53;;;17.87;55.25
34742;BME280;20968;42.696;23.360;2023-05-08T06:05:36;95430.84;;;18.09;54.37
34742;BME280;20968;42.696;23.360;2023-05-08T06:08:02;95436.81;;;18.24;53.85
34742;BME280;20968;42.696;23.360;2023-05-08T06:10:27;95426.44;;;18.19;54.14
34742;BME280;20968;42.696;23.360;2023-05-08T06:12:53;95429.28;;;17.85;54.46
34742;BME280;20968;42.696;23.360;2023-05-08T06:15:20;95411.81;;;17.84;54.33
34742;BME280;20968;42.696;23.360;2023-05-08T06:17:46;95417.72;;;18.04;55.16
34742;BME280;20968;42.696;23.360;2023-05-08T06:20:15;95414.56;;;17.90;54.74
34742;BME280;20968;42.696;23.360;2023-05-08T06:22:40;95418.91;;;18.14;54.80
34742;BME280;20968;42.696;23.360;2023-05-08T06:25:07;95415.31;;;18.19;54.25
34742;BME280;20968;42.696;23.360;2023-05-08T06:27:32;95418.09;;;18.19;53.79
34742;BME280;20968;42.696;23.360;2023-05-08T06:29:58;95416.22;;;18.03;53.92
34742;BME280;20968;42.696;23.360;2023-05-08T06:32:24;95427.28;;;18.38;62.90
34742;BME280;20968;42.696;23.360;2023-05-08T06:34:49;95421.81;;;18.75;61.51
34742;BME280;20968;42.696;23.360;2023-05-08T06:37:16;95423.28;;;19.00;59.85
34742;BME280;20968;42.696;23.360;2023-05-08T06:39:44;95411.38;;;19.18;56.66
34742;BME280;20968;42.696;23.360;2023-05-08T06:42:11;95418.91;;;19.41;52.55
34742;BME280;20968;42.696;23.360;2023-05-08T06:44:38;95422.47;;;19.42;52.10
34742;BME280;20968;42.696;23.360;2023-05-08T06:47:05;95435.44;;;19.76;52.41
34742;BME280;20968;42.696;23.360;2023-05-08T06:49:35;95427.38;;;19.85;50.40
34742;BME280;20968;42.696;23.360;2023-05-08T06:52:00;95416.81;;;19.97;50.81
34742;BME280;20968;42.696;23.360;2023-05-08T06:54:26;95426.66;;;20.16;48.79
34742;BME280;20968;42.696;23.360;2023-05-08T06:56:52;95416.75;;;20.15;48.60
34742;BME280;20968;42.696;23.360;2023-05-08T06:59:19;95415.47;;;20.16;48.28
34742;BME280;20968;42.696;23.360;2023-05-08T07:01:44;95422.16;;;20.26;47.87
34742;BME280;20968;42.696;23.360;2023-05-08T07:04:10;95423.53;;;20.20;48.84
34742;BME280;20968;42.696;23.360;2023-05-08T07:06:35;95430.31;;;20.11;49.50
34742;BME280;20968;42.696;23.360;2023-05-08T07:09:00;95431.19;;;20.19;50.20
34742;BME280;20968;42.696;23.360;2023-05-08T07:11:26;95433.34;;;20.26;49.35
34742;BME280;20968;42.696;23.360;2023-05-08T07:13:51;95437.00;;;20.34;49.37
34742;BME280;20968;42.696;23.360;2023-05-08T07:16:17;95426.25;;;20.38;48.43
34742;BME280;20968;42.696;23.360;2023-05-08T07:18:42;95429.91;;;20.33;47.60
34742;BME280;20968;42.696;23.360;2023-05-08T07:21:09;95434.31;;;20.29;48.29
34742;BME280;20968;42.696;23.360;2023-05-08T07:23:35;95435.47;;;20.20;48.91
34742;BME280;20968;42.696;23.360;2023-05-08T07:26:00;95432.47;;;20.31;49.54
34742;BME280;20968;42.696;23.360;2023-05-08T07:28:26;95425.19;;;20.41;48.53
34742;BME280;20968;42.696;23.360;2023-05-08T07:30:52;95420.25;;;20.47;48.77
34742;BME280;20968;42.696;23.360;2023-05-08T07:33:17;95423.69;;;20.53;48.25
34742;BME280;20968;42.696;23.360;2023-05-08T07:35:43;95428.84;;;20.62;48.32
34742;BME280;20968;42.696;23.360;2023-05-08T07:38:09;95425.50;;;20.63;48.75
34742;BME280;20968;42.696;23.360;2023-05-08T07:40:35;95430.38;;;20.76;49.06
34742;BME280;20968;42.696;23.360;2023-05-08T07:43:00;95422.53;;;20.61;48.71
34742;BME280;20968;42.696;23.360;2023-05-08T07:45:26;95430.38;;;20.63;49.13
34742;BME280;20968;42.696;23.360;2023-05-08T07:47:54;95425.44;;;20.82;49.41
34742;BME280;20968;42.696;23.360;2023-05-08T07:50:20;95437.81;;;20.86;48.29
34742;BME280;20968;42.696;23.360;2023-05-08T07:52:46;95430.38;;;20.76;49.21
34742;BME280;20968;42.696;23.360;2023-05-08T07:55:12;95429.41;;;21.12;47.34
34742;BME280;20968;42.696;23.360;2023-05-08T07:57:41;95434.16;;;21.04;45.77
34742;BME280;20968;42.696;23.360;2023-05-08T08:00:09;95438.03;;;21.14;46.42
34742;BME280;20968;42.696;23.360;2023-05-08T08:02:35;95441.03;;;21.16;45.55
34742;BME280;20968;42.696;23.360;2023-05-08T08:05:03;95433.28;;;21.09;45.78
34742;BME280;20968;42.696;23.360;2023-05-08T08:07:29;95432.75;;;21.11;47.33
34742;BME280;20968;42.696;23.360;2023-05-08T08:09:57;95426.06;;;21.13;45.50
34742;BME280;20968;42.696;23.360;2023-05-08T08:12:22;95436.19;;;21.16;45.92
34742;BME280;20968;42.696;23.360;2023-05-08T08:14:47;95435.00;;;21.12;46.07
34742;BME280;20968;42.696;23.360;2023-05-08T08:17:13;95431.97;;;21.10;46.10
34742;BME280;20968;42.696;23.360;2023-05-08T08:19:38;95429.72;;;21.09;46.60
34742;BME280;20968;42.696;23.360;2023-05-08T08:22:04;95435.44;;;21.03;47.21
34742;BME280;20968;42.696;23.360;2023-05-08T08:24:53;95429.41;;;21.12;47.52
34742;BME280;20968;42.696;23.360;2023-05-08T08:27:18;95428.44;;;21.10;47.68
34742;BME280;20968;42.696;23.360;2023-05-08T08:29:44;95432.31;;;21.07;48.15
34742;BME280;20968;42.696;23.360;2023-05-08T08:32:09;95430.34;;;21.14;48.60
34742;BME280;20968;42.696;23.360;2023-05-08T08:34:35;95429.38;;;21.25;48.23
34742;BME280;20968;42.696;23.360;2023-05-08T08:37:00;95428.19;;;21.20;47.74
34742;BME280;20968;42.696;23.360;2023-05-08T08:39:26;95423.97;;;21.27;47.66
34742;BME280;20968;42.696;23.360;2023-05-08T08:41:51;95419.63;;;21.39;48.68
34742;BME280;20968;42.696;23.360;2023-05-08T08:44:17;95409.06;;;21.45;49.63
34742;BME280;20968;42.696;23.360;2023-05-08T08:46:50;95404.41;;;21.60;47.60
34742;BME280;20968;42.696;23.360;2023-05-08T08:49:18;95405.28;;;21.42;47.94
34742;BME280;20968;42.696;23.360;2023-05-08T08:51:52;95396.19;;;21.49;48.07
34742;BME280;20968;42.696;23.360;2023-05-08T08:54:22;95399.06;;;21.36;49.34
34742;BME280;20968;42.696;23.360;2023-05-08T08:56:50;95402.78;;;21.52;48.52
34742;BME280;20968;42.696;23.360;2023-05-08T08:59:17;95388.00;;;21.51;47.83
34742;BME280;20968;42.696;23.360;2023-05-08T09:01:55;95377.44;;;21.57;49.29
34742;BME280;20968;42.696;23.360;2023-05-08T09:04:21;95381.91;;;21.73;49.32
34742;BME280;20968;42.696;23.360;2023-05-08T09:06:52;95384.84;;;21.88;50.09
34742;BME280;20968;42.696;23.360;2023-05-08T09:09:18;95380.63;;;21.94;49.13
34742;BME280;20968;42.696;23.360;2023-05-08T09:11:45;95370.97;;;21.83;47.86
34742;BME280;20968;42.696;23.360;2023-05-08T09:14:13;95370.13;;;21.95;48.21
34742;BME280;20968;42.696;23.360;2023-05-08T09:16:40;95375.56;;;21.93;48.17
34742;BME280;20968;42.696;23.360;2023-05-08T09:19:29;95365.63;;;21.92;47.10
34742;BME280;20968;42.696;23.360;2023-05-08T09:22:03;95351.63;;;21.72;48.73
34742;BME280;20968;42.696;23.360;2023-05-08T09:24:58;95354.06;;;21.75;49.14
34742;BME280;20968;42.696;23.360;2023-05-08T09:27:26;95338.16;;;21.70;49.38
34742;BME280;20968;42.696;23.360;2023-05-08T09:30:04;95349.38;;;21.70;50.86
34742;BME280;20968;42.696;23.360;2023-05-08T09:32:43;95347.81;;;21.49;49.76
34742;BME280;20968;42.696;23.360;2023-05-08T09:35:10;95334.81;;;21.38;50.04
34742;BME280;20968;42.696;23.360;2023-05-08T09:37:38;95341.81;;;21.65;50.51
34742;BME280;20968;42.696;23.360;2023-05-08T09:40:23;95353.84;;;21.73;50.91
34742;BME280;20968;42.696;23.360;2023-05-08T09:42:50;95356.66;;;21.73;49.13
34742;BME280;20968;42.696;23.360;2023-05-08T09:45:28;95360.50;;;21.83;49.49
34742;BME280;20968;42.696;23.360;2023-05-08T09:47:59;95369.00;;;21.91;49.46
34742;BME280;20968;42.696;23.360;2023-05-08T09:50:28;95359.91;;;21.97;48.93
34742;BME280;20968;42.696;23.360;2023-05-08T09:53:02;95370.00;;;22.00;50.08
34742;BME280;20968;42.696;23.360;2023-05-08T09:55:47;95364.03;;;22.04;49.71
34742;BME280;20968;42.696;23.360;2023-05-08T09:58:16;95354.59;;;22.14;49.27
34742;BME280;20968;42.696;23.360;2023-05-08T10:00:47;95361.09;;;22.09;48.96
34742;BME280;20968;42.696;23.360;2023-05-08T10:03:15;95358.38;;;22.17;48.90
34742;BME280;20968;42.696;23.360;2023-05-08T10:05:41;95358.75;;;22.41;48.18
34742;BME280;20968;42.696;23.360;2023-05-08T10:08:22;95350.22;;;22.54;47.64
34742;BME280;20968;42.696;23.360;2023-05-08T10:11:20;95359.84;;;22.66;46.81
34742;BME280;20968;42.696;23.360;2023-05-08T10:13:47;95360.53;;;22.59;47.20
34742;BME280;20968;42.696;23.360;2023-05-08T10:16:17;95346.56;;;22.39;47.56
34742;BME280;20968;42.696;23.360;2023-05-08T10:18:49;95352.53;;;22.35;47.32
34742;BME280;20968;42.696;23.360;2023-05-08T10:21:16;95351.63;;;22.40;48.14
34742;BME280;20968;42.696;23.360;2023-05-08T10:23:48;95339.50;;;22.45;49.04
34742;BME280;20968;42.696;23.360;2023-05-08T10:26:29;95337.75;;;22.63;48.73
34742;BME280;20968;42.696;23.360;2023-05-08T10:28:57;95331.94;;;22.68;48.73
34742;BME280;20968;42.696;23.360;2023-05-08T10:31:27;95330.25;;;22.65;47.29
34742;BME280;20968;42.696;23.360;2023-05-08T10:33:57;95332.47;;;22.59;47.61
34742;BME280;20968;42.696;23.360;2023-05-08T10:36:25;95332.06;;;22.55;48.14
34742;BME280;20968;42.696;23.360;2023-05-08T10:38:52;95330.97;;;22.58;48.98
34742;BME280;20968;42.696;23.360;2023-05-08T10:41:20;95326.53;;;22.70;48.33
34742;BME280;20968;42.696;23.360;2023-05-08T10:43:47;95335.91;;;22.73;48.04
34742;BME280;20968;42.696;23.360;2023-05-08T10:46:36;95325.97;;;22.72;47.86
34742;BME280;20968;42.696;23.360;2023-05-08T10:49:19;95324.28;;;22.69;48.28
34742;BME280;20968;42.696;23.360;2023-05-08T10:52:08;95315.88;;;22.76;48.27
34742;BME280;20968;42.696;23.360;2023-05-08T10:57:23;95316.25;;;22.73;46.56
34742;BME280;20968;42.696;23.360;2023-05-08T10:59:49;95310.25;;;22.69;46.76
34742;BME280;20968;42.696;23.360;2023-05-08T11:02:25;95312.66;;;22.65;47.34
34742;BME280;20968;42.696;23.360;2023-05-08T11:04:52;95308.97;;;22.77;47.27
34742;BME280;20968;42.696;23.360;2023-05-08T11:07:29;95315.91;;;23.19;46.92
34742;BME280;20968;42.696;23.360;2023-05-08T11:10:19;95309.06;;;23.72;46.60
34742;BME280;20968;42.696;23.360;2023-05-08T11:12:58;95290.34;;;24.12;45.77
34742;BME280;20968;42.696;23.360;2023-05-08T11:15:40;95291.78;;;24.57;43.32
34742;BME280;20968;42.696;23.360;2023-05-08T11:18:11;95287.50;;;24.96;42.51
34742;BME280;20968;42.696;23.360;2023-05-08T11:20:41;95281.28;;;25.12;40.93
34742;BME280;20968;42.696;23.360;2023-05-08T11:23:28;95280.16;;;25.00;40.92
34742;BME280;20968;42.696;23.360;2023-05-08T11:26:02;95285.63;;;24.98;40.54
34742;BME280;20968;42.696;23.360;2023-05-08T11:28:35;95274.06;;;25.18;41.04
34742;BME280;20968;42.696;23.360;2023-05-08T11:31:05;95271.56;;;25.62;40.65
34742;BME280;20968;42.696;23.360;2023-05-08T11:33:32;95261.72;;;25.70;39.11
34742;BME280;20968;42.696;23.360;2023-05-08T11:38:34;95254.19;;;25.97;39.37
34742;BME280;20968;42.696;23.360;2023-05-08T11:41:07;95253.59;;;25.98;38.74
34742;BME280;20968;42.696;23.360;2023-05-08T11:46:03;95238.09;;;26.07;36.54
34742;BME280;20968;42.696;23.360;2023-05-08T11:48:29;95239.84;;;26.19;38.25
34742;BME280;20968;42.696;23.360;2023-05-08T11:50:55;95225.34;;;25.98;37.54
34742;BME280;20968;42.696;23.360;2023-05-08T11:53:21;95226.16;;;25.92;37.65
34742;BME280;20968;42.696;23.360;2023-05-08T11:55:48;95216.72;;;25.97;38.26
34742;BME280;20968;42.696;23.360;2023-05-08T11:58:15;95226.22;;;26.25;37.84
34742;BME280;20968;42.696;23.360;2023-05-08T12:00:41;95217.25;;;26.19;37.67
34742;BME280;20968;42.696;23.360;2023-05-08T12:03:17;95211.03;;;26.21;38.36
34742;BME280;20968;42.696;23.360;2023-05-08T12:05:43;95203.69;;;26.18;38.14
34742;BME280;20968;42.696;23.360;2023-05-08T12:08:09;95205.03;;;25.76;37.96
34742;BME280;20968;42.696;23.360;2023-05-08T12:10:59;95209.66;;;25.39;39.58
34742;BME280;20968;42.696;23.360;2023-05-08T12:13:26;95200.31;;;25.29;38.79
34742;BME280;20968;42.696;23.360;2023-05-08T12:15:56;95206.47;;;25.35;39.84
34742;BME280;20968;42.696;23.360;2023-05-08T12:18:23;95203.22;;;25.46;38.97
34742;BME280;20968;42.696;23.360;2023-05-08T12:20:53;95203.50;;;25.58;38.43
34742;BME280;20968;42.696;23.360;2023-05-08T12:23:21;95204.00;;;25.88;38.79
34742;BME280;20968;42.696;23.360;2023-05-08T12:25:47;95205.31;;;25.87;39.18
34742;BME280;20968;42.696;23.360;2023-05-08T12:28:15;95203.56;;;26.16;38.95
34742;BME280;20968;42.696;23.360;2023-05-08T12:30:41;95179.53;;;26.24;38.11
34742;BME280;20968;42.696;23.360;2023-05-08T12:33:07;95192.75;;;26.56;37.16
34742;BME280;20968;42.696;23.360;2023-05-08T12:35:33;95196.09;;;26.45;37.50
34742;BME280;20968;42.696;23.360;2023-05-08T12:38:02;95189.81;;;26.12;37.43
34742;BME280;20968;42.696;23.360;2023-05-08T12:40:30;95181.00;;;25.92;38.55
34742;BME280;20968;42.696;23.360;2023-05-08T12:42:56;95182.91;;;25.89;38.11
34742;BME280;20968;42.696;23.360;2023-05-08T12:45:25;95184.75;;;25.70;38.50
34742;BME280;20968;42.696;23.360;2023-05-08T12:47:53;95187.31;;;25.34;38.73
34742;BME280;20968;42.696;23.360;2023-05-08T12:50:20;95183.97;;;24.96;39.51
34742;BME280;20968;42.696;23.360;2023-05-08T12:52:47;95198.56;;;24.70;40.28
34742;BME280;20968;42.696;23.360;2023-05-08T12:55:22;95181.91;;;24.57;40.15
34742;BME280;20968;42.696;23.360;2023-05-08T12:57:49;95173.53;;;24.42;40.44
34742;BME280;20968;42.696;23.360;2023-05-08T13:00:16;95172.19;;;24.36;41.27
34742;BME280;20968;42.696;23.360;2023-05-08T13:02:54;95198.56;;;24.09;44.78
34742;BME280;20968;42.696;23.360;2023-05-08T13:05:22;95189.59;;;23.58;47.87
34742;BME280;20968;42.696;23.360;2023-05-08T13:07:49;95198.59;;;23.19;49.22
34742;BME280;20968;42.696;23.360;2023-05-08T13:10:17;95197.38;;;22.77;50.54
34742;BME280;20968;42.696;23.360;2023-05-08T13:12:44;95194.59;;;22.92;50.23
34742;BME280;20968;42.696;23.360;2023-05-08T13:15:12;95195.88;;;22.76;50.42
34742;BME280;20968;42.696;23.360;2023-05-08T13:17:38;95207.09;;;22.84;50.58
34742;BME280;20968;42.696;23.360;2023-05-08T13:20:05;95211.59;;;22.79;50.80
34742;BME280;20968;42.696;23.360;2023-05-08T13:22:35;95212.47;;;22.67;50.90
34742;BME280;20968;42.696;23.360;2023-05-08T13:25:01;95211.78;;;22.74;50.67
34742;BME280;20968;42.696;23.360;2023-05-08T13:27:28;95219.56;;;22.53;51.33
34742;BME280;20968;42.696;23.360;2023-05-08T13:29:54;95218.94;;;22.40;51.48
34742;BME280;20968;42.696;23.360;2023-05-08T13:32:20;95217.19;;;21.94;52.57
34742;BME280;20968;42.696;23.360;2023-05-08T13:34:45;95232.06;;;21.82;53.47
34742;BME280;20968;42.696;23.360;2023-05-08T13:37:11;95225.56;;;21.66;53.76
34742;BME280;20968;42.696;23.360;2023-05-08T13:39:36;95232.81;;;21.62;53.69
34742;BME280;20968;42.696;23.360;2023-05-08T13:42:03;95236.38;;;21.62;54.43
34742;BME280;20968;42.696;23.360;2023-05-08T13:44:31;95237.69;;;21.61;54.62
34742;BME280;20968;42.696;23.360;2023-05-08T13:46:57;95249.03;;;21.76;55.04
34742;BME280;20968;42.696;23.360;2023-05-08T13:49:23;95240.00;;;21.50;55.15
34742;BME280;20968;42.696;23.360;2023-05-08T13:51:50;95254.38;;;21.67;55.36
34742;BME280;20968;42.696;23.360;2023-05-08T13:54:15;95239.66;;;21.53;55.76
34742;BME280;20968;42.696;23.360;2023-05-08T13:56:41;95252.41;;;21.41;55.60
34742;BME280;20968;42.696;23.360;2023-05-08T13:59:07;95254.78;;;21.30;56.65
34742;BME280;20968;42.696;23.360;2023-05-08T14:01:32;95257.03;;;21.31;56.40
34742;BME280;20968;42.696;23.360;2023-05-08T14:03:57;95263.50;;;21.06;56.57
34742;BME280;20968;42.696;23.360;2023-05-08T14:06:23;95263.78;;;20.82;57.47
34742;BME280;20968;42.696;23.360;2023-05-08T14:08:50;95257.94;;;20.93;57.77
34742;BME280;20968;42.696;23.360;2023-05-08T14:11:15;95272.91;;;20.96;57.46
34742;BME280;20968;42.696;23.360;2023-05-08T14:13:42;95272.59;;;21.19;57.45